Time;durP1;ratioP1;P1;durP2;ratioP2;P2;SDS_P1;SDS_P2;PMS_P1;PMS_P2;Temp;Humidity;BMP_temperature;BMP_pressure;BME280_temperature;BME280_humidity;BME280_pressure;Samples;Min_cycle;Max_cycle;Signal;HPM_P1;HPM_P2
2021/04/18 00:01:05;;;;;;;14.60;13.90;;;8.00;63.20;;;;;;5071113;28;21244;-66
2021/04/18 00:03:31;;;;;;;16.10;15.00;;;8.00;64.70;;;;;;5071330;28;20504;-68
2021/04/18 00:05:57;;;;;;;15.10;14.07;;;7.90;66.20;;;;;;5071188;28;20468;-67
2021/04/18 00:08:24;;;;;;;14.30;13.73;;;7.90;67.90;;;;;;5071015;28;20443;-69
2021/04/18 00:10:50;;;;;;;14.80;14.07;;;7.80;69.40;;;;;;5071192;28;20439;-68
2021/04/18 00:13:17;;;;;;;15.40;14.57;;;7.80;70.80;;;;;;5071122;28;20812;-67
2021/04/18 00:15:45;;;;;;;14.73;13.93;;;7.80;72.00;;;;;;5071001;28;20459;-68
2021/04/18 00:18:12;;;;;;;15.03;14.13;;;7.80;73.00;;;;;;5070837;28;20931;-68
2021/04/18 00:20:39;;;;;;;16.03;14.90;;;7.70;74.10;;;;;;5071021;28;20532;-68
2021/04/18 00:23:05;;;;;;;15.67;14.40;;;7.80;74.60;;;;;;5071148;28;20444;-66
2021/04/18 00:25:32;;;;;;;14.90;13.90;;;7.80;75.40;;;;;;5071095;28;20463;-66
2021/04/18 00:27:58;;;;;;;14.33;13.60;;;7.90;75.30;;;;;;5070864;28;20964;-68
2021/04/18 00:30:25;;;;;;;15.60;14.17;;;7.90;76.10;;;;;;5071009;28;20443;-68
2021/04/18 00:32:53;;;;;;;14.30;13.60;;;7.90;76.20;;;;;;5070997;28;20447;-66
2021/04/18 00:35:20;;;;;;;15.10;14.00;;;7.90;76.50;;;;;;5070854;28;20478;-68
2021/04/18 00:37:47;;;;;;;14.53;13.83;;;7.90;76.60;;;;;;5070731;28;20813;-69
2021/04/18 00:40:16;;;;;;;14.77;14.00;;;8.00;76.60;;;;;;5073020;28;20474;-68
2021/04/18 00:42:42;;;;;;;14.40;13.80;;;8.00;76.90;;;;;;5074577;28;20940;-68
2021/04/18 00:45:12;;;;;;;15.27;14.37;;;8.10;76.80;;;;;;5074288;28;20910;-69
2021/04/18 00:47:41;;;;;;;15.67;14.37;;;8.10;77.00;;;;;;5074333;28;20447;-67
2021/04/18 00:50:09;;;;;;;14.10;13.40;;;8.10;76.90;;;;;;5074389;28;20450;-68
2021/04/18 00:52:36;;;;;;;15.07;14.17;;;8.10;77.30;;;;;;5074324;28;20439;-68
2021/04/18 00:55:04;;;;;;;14.57;13.80;;;8.10;77.30;;;;;;5074493;28;20467;-68
2021/04/18 00:57:30;;;;;;;15.73;14.40;;;8.10;77.40;;;;;;5074156;28;20443;-68
2021/04/18 00:59:59;;;;;;;15.00;14.10;;;8.00;77.90;;;;;;5073947;28;21011;-67
2021/04/18 01:02:25;;;;;;;15.47;14.47;;;8.00;78.50;;;;;;5074042;28;20678;-68
2021/04/18 01:04:52;;;;;;;14.60;13.90;;;8.00;78.90;;;;;;5074003;28;20467;-68
2021/04/18 01:07:19;;;;;;;15.37;14.47;;;7.90;79.80;;;;;;5074029;28;20443;-68
2021/04/18 01:09:45;;;;;;;16.27;15.37;;;7.80;80.30;;;;;;5073785;28;20492;-68
2021/04/18 01:12:12;;;;;;;15.97;15.07;;;7.80;81.10;;;;;;5074033;28;21047;-67
2021/04/18 01:14:38;;;;;;;16.27;15.00;;;7.70;82.00;;;;;;5073883;28;20459;-67
2021/04/18 01:17:04;;;;;;;15.50;14.40;;;7.70;82.70;;;;;;5073906;28;20470;-68
2021/04/18 01:19:30;;;;;;;15.10;14.20;;;7.70;83.40;;;;;;5073643;28;20483;-69
2021/04/18 01:21:57;;;;;;;15.80;14.90;;;7.70;83.70;;;;;;5073886;28;20450;-68
2021/04/18 01:24:25;;;;;;;15.53;14.77;;;7.70;84.90;;;;;;5073658;28;20467;-67
2021/04/18 01:26:52;;;;;;;14.80;14.10;;;7.60;85.50;;;;;;5073775;28;20502;-68
2021/04/18 01:29:18;;;;;;;14.67;13.97;;;7.60;86.70;;;;;;5073562;28;20431;-67
2021/04/18 01:31:44;;;;;;;14.47;13.77;;;7.60;87.40;;;;;;5073641;28;20455;-68
2021/04/18 01:34:12;;;;;;;14.57;13.87;;;7.60;88.10;;;;;;5073591;28;20446;-67
2021/04/18 01:36:39;;;;;;;14.87;14.07;;;7.60;88.90;;;;;;5073595;28;20447;-68
2021/04/18 01:39:07;;;;;;;16.17;14.90;;;7.60;89.80;;;;;;5073206;28;20981;-68
2021/04/18 01:41:33;;;;;;;14.53;13.80;;;7.60;90.40;;;;;;5073347;28;21125;-68
2021/04/18 01:43:59;;;;;;;14.83;13.83;;;7.60;90.60;;;;;;5073402;28;20954;-69
2021/04/18 01:46:25;;;;;;;14.60;13.80;;;7.60;90.80;;;;;;5073212;28;20466;-69
2021/04/18 01:48:52;;;;;;;15.13;14.43;;;7.60;90.80;;;;;;5072911;28;20466;-68
2021/04/18 01:51:18;;;;;;;15.93;14.80;;;7.60;90.90;;;;;;5071927;28;20928;-68
2021/04/18 01:53:44;;;;;;;14.47;13.43;;;7.60;91.00;;;;;;5073269;28;20508;-67
2021/04/18 01:56:11;;;;;;;14.80;14.10;;;7.60;91.00;;;;;;5073056;28;20467;-67
2021/04/18 01:58:38;;;;;;;15.53;14.73;;;7.60;91.10;;;;;;5072870;28;20443;-68
2021/04/18 02:01:04;;;;;;;14.97;13.83;;;7.60;91.20;;;;;;5072966;28;20829;-68
2021/04/18 02:03:30;;;;;;;14.77;14.07;;;7.60;91.30;;;;;;5073058;28;20466;-69
2021/04/18 02:05:56;;;;;;;14.80;13.97;;;7.70;91.50;;;;;;5072799;28;20459;-68
2021/04/18 02:08:22;;;;;;;15.50;14.37;;;7.70;91.50;;;;;;5072639;28;20447;-68
2021/04/18 02:10:48;;;;;;;15.47;14.57;;;7.70;91.90;;;;;;5072746;28;20436;-68
2021/04/18 02:13:15;;;;;;;14.80;14.00;;;7.70;91.60;;;;;;5072806;28;20439;-68
2021/04/18 02:15:42;;;;;;;15.00;14.10;;;7.70;91.50;;;;;;5072643;28;20474;-68
2021/04/18 02:18:08;;;;;;;15.40;14.60;;;7.70;91.60;;;;;;5072481;28;20443;-67
2021/04/18 02:20:34;;;;;;;14.07;13.27;;;7.70;92.00;;;;;;5072469;28;21065;-67
2021/04/18 02:23:00;;;;;;;15.20;14.33;;;7.60;92.20;;;;;;5072554;28;20447;-67
2021/04/18 02:25:26;;;;;;;15.67;14.67;;;7.60;92.60;;;;;;5072397;28;20459;-67
2021/04/18 02:27:53;;;;;;;14.47;13.67;;;7.60;93.10;;;;;;5072379;28;20451;-67
2021/04/18 02:30:21;;;;;;;14.40;13.53;;;7.60;93.50;;;;;;5072424;28;20440;-67
2021/04/18 02:32:47;;;;;;;13.97;13.37;;;7.60;93.90;;;;;;5072397;28;20443;-67
2021/04/18 02:35:16;;;;;;;14.67;13.93;;;7.50;94.30;;;;;;5072241;28;21203;-67
2021/04/18 02:37:42;;;;;;;15.43;14.30;;;7.50;94.80;;;;;;5072122;28;20443;-68
2021/04/18 02:40:09;;;;;;;14.47;13.67;;;7.50;95.30;;;;;;5072107;28;20502;-67
2021/04/18 02:42:37;;;;;;;15.10;14.10;;;7.40;95.60;;;;;;5072132;28;20548;-68
2021/04/18 02:45:04;;;;;;;14.43;13.53;;;7.40;96.20;;;;;;5072130;28;21008;-67
2021/04/18 02:47:31;;;;;;;15.07;14.13;;;7.30;96.70;;;;;;5072174;28;20446;-68
2021/04/18 02:49:57;;;;;;;15.57;14.40;;;7.30;97.20;;;;;;5072047;28;20439;-67
2021/04/18 02:52:23;;;;;;;14.23;13.30;;;7.30;97.50;;;;;;5072018;28;20493;-68
2021/04/18 02:54:49;;;;;;;15.07;14.17;;;7.30;97.60;;;;;;5071933;28;20459;-68
2021/04/18 02:57:16;;;;;;;15.07;14.00;;;7.30;97.70;;;;;;5071946;28;20443;-68
2021/04/18 02:59:42;;;;;;;15.93;14.40;;;7.30;98.10;;;;;;5071633;28;20509;-68
2021/04/18 03:02:08;;;;;;;14.73;14.03;;;7.20;98.50;;;;;;5071561;28;20443;-68
2021/04/18 03:04:35;;;;;;;14.13;13.43;;;7.20;98.90;;;;;;5071883;28;20473;-68
2021/04/18 03:07:01;;;;;;;15.70;14.70;;;7.20;99.10;;;;;;5071893;28;20443;-68
2021/04/18 03:09:28;;;;;;;14.73;13.93;;;7.20;99.60;;;;;;5071494;28;20447;-68
2021/04/18 03:11:54;;;;;;;15.10;14.17;;;7.20;99.90;;;;;;5071739;28;20447;-68
2021/04/18 03:14:20;;;;;;;15.10;14.20;;;7.20;99.90;;;;;;5071842;28;20443;-68
2021/04/18 03:16:46;;;;;;;17.27;16.00;;;7.20;99.90;;;;;;5071620;28;20443;-68
2021/04/18 03:19:12;;;;;;;15.07;14.10;;;7.10;99.90;;;;;;5071441;28;20443;-68
2021/04/18 03:21:39;;;;;;;14.73;13.93;;;7.10;99.90;;;;;;5071699;28;20454;-68
2021/04/18 03:24:07;;;;;;;15.93;14.60;;;7.00;99.90;;;;;;5071579;28;20447;-68
2021/04/18 03:26:33;;;;;;;15.03;14.10;;;6.90;99.90;;;;;;5071723;28;20444;-68
2021/04/18 03:28:59;;;;;;;15.67;14.47;;;6.90;99.90;;;;;;5071445;28;20443;-67
2021/04/18 03:31:25;;;;;;;16.53;15.00;;;6.90;99.90;;;;;;5071466;28;20938;-67
2021/04/18 03:33:51;;;;;;;16.83;15.50;;;6.80;99.90;;;;;;5071649;28;20443;-67
2021/04/18 03:36:18;;;;;;;17.03;15.83;;;6.80;99.90;;;;;;5089608;22;21097;-64
2021/04/18 03:38:45;;;;;;;16.33;15.33;;;6.80;99.90;;;;;;5043585;28;20440;-63
2021/04/18 03:41:11;;;;;;;16.50;15.50;;;6.80;99.90;;;;;;5051228;28;20484;-64
2021/04/18 03:43:37;;;;;;;16.97;15.40;;;6.80;99.90;;;;;;5051226;28;20448;-64
2021/04/18 03:46:03;;;;;;;16.50;15.10;;;6.70;99.90;;;;;;5051307;28;20460;-64
2021/04/18 03:48:30;;;;;;;16.13;14.73;;;6.80;99.90;;;;;;5050949;28;20813;-64
2021/04/18 03:50:56;;;;;;;17.67;16.40;;;6.70;99.90;;;;;;5051342;28;20444;-64
2021/04/18 03:53:22;;;;;;;17.90;16.60;;;6.70;99.90;;;;;;5051227;28;20451;-66
2021/04/18 03:55:49;;;;;;;17.00;15.80;;;6.70;99.90;;;;;;5051191;28;20464;-64
2021/04/18 03:58:15;;;;;;;15.13;14.23;;;6.70;99.90;;;;;;5051064;28;20451;-64
2021/04/18 04:00:41;;;;;;;16.07;15.00;;;6.70;99.90;;;;;;5051138;28;20981;-64
2021/04/18 04:03:08;;;;;;;15.70;14.80;;;6.70;99.90;;;;;;5051475;28;20448;-66
2021/04/18 04:05:34;;;;;;;16.30;15.30;;;6.60;99.90;;;;;;5051832;28;20841;-65
2021/04/18 04:08:00;;;;;;;16.07;15.20;;;6.60;99.90;;;;;;5050931;28;20440;-66
2021/04/18 04:10:26;;;;;;;14.40;13.50;;;6.60;99.90;;;;;;5051900;28;20911;-66
2021/04/18 04:12:53;;;;;;;17.13;15.83;;;6.70;99.90;;;;;;5051314;28;20259;-67
2021/04/18 04:15:20;;;;;;;15.73;14.53;;;6.70;99.90;;;;;;5053561;28;20459;-65
2021/04/18 04:17:46;;;;;;;18.07;16.27;;;6.70;99.90;;;;;;5054700;28;20450;-67
2021/04/18 04:20:13;;;;;;;17.80;16.30;;;6.80;99.90;;;;;;5054878;28;21046;-64
2021/04/18 04:22:43;;;;;;;19.07;17.70;;;6.80;99.90;;;;;;5054662;28;20582;-64
2021/04/18 04:25:11;;;;;;;18.10;16.23;;;6.80;99.90;;;;;;5051320;28;20472;-65
2021/04/18 04:27:38;;;;;;;17.30;16.30;;;6.70;99.90;;;;;;5042723;28;20487;-63
2021/04/18 04:30:07;;;;;;;18.80;17.40;;;6.70;99.90;;;;;;5042944;28;21050;-64
2021/04/18 04:32:33;;;;;;;18.87;17.37;;;6.60;99.90;;;;;;5043066;28;20506;-65
2021/04/18 04:35:00;;;;;;;18.40;16.90;;;6.60;99.90;;;;;;5042772;28;20529;-65
2021/04/18 04:37:26;;;;;;;18.17;16.97;;;6.70;99.90;;;;;;5042982;28;21044;-64
2021/04/18 04:39:52;;;;;;;20.37;18.73;;;6.70;99.90;;;;;;5042790;28;20846;-65
2021/04/18 04:42:19;;;;;;;21.37;19.60;;;6.60;99.90;;;;;;5042871;28;20448;-65
2021/04/18 04:44:46;;;;;;;19.40;18.00;;;6.70;99.90;;;;;;5042490;28;21146;-65
2021/04/18 04:47:14;;;;;;;20.93;18.93;;;6.70;99.90;;;;;;5042556;28;20463;-66
2021/04/18 04:49:40;;;;;;;18.63;17.03;;;6.70;99.90;;;;;;5041900;28;20440;-68
2021/04/18 04:52:09;;;;;;;18.93;17.63;;;6.70;99.90;;;;;;5043789;28;20534;-68
2021/04/18 04:54:36;;;;;;;18.57;17.33;;;6.70;99.90;;;;;;5045862;28;20455;-66
2021/04/18 04:57:03;;;;;;;19.40;17.90;;;6.70;99.90;;;;;;5043160;28;20972;-66
2021/04/18 04:59:31;;;;;;;17.70;16.30;;;6.80;99.90;;;;;;5042184;28;20552;-65
2021/04/18 05:01:57;;;;;;;19.50;18.20;;;6.90;99.90;;;;;;5042268;28;20455;-66
2021/04/18 05:04:24;;;;;;;20.60;19.07;;;6.90;99.90;;;;;;5042191;28;20529;-64
2021/04/18 05:06:52;;;;;;;19.97;18.03;;;6.90;99.90;;;;;;5042548;28;20443;-65
2021/04/18 05:09:18;;;;;;;17.53;16.40;;;6.90;99.90;;;;;;5042434;28;21242;-65
2021/04/18 05:11:44;;;;;;;18.17;16.97;;;6.90;99.90;;;;;;5042215;28;20777;-63
2021/04/18 05:14:10;;;;;;;18.93;17.63;;;6.80;99.90;;;;;;5042132;28;20422;-64
2021/04/18 05:16:37;;;;;;;21.37;17.70;;;6.80;99.90;;;;;;5042055;28;20538;-65
2021/04/18 05:19:03;;;;;;;19.10;17.80;;;6.80;99.90;;;;;;5041824;28;20533;-65
2021/04/18 05:21:30;;;;;;;18.43;17.13;;;6.80;99.90;;;;;;5041872;28;20549;-65
2021/04/18 05:23:56;;;;;;;18.63;17.00;;;6.80;99.90;;;;;;5041832;28;20451;-63
2021/04/18 05:26:23;;;;;;;19.30;17.73;;;6.80;99.90;;;;;;5041824;28;20523;-63
2021/04/18 05:28:49;;;;;;;19.42;18.02;;;6.80;99.90;;;;;;5041584;28;20463;-64
2021/04/18 05:31:15;;;;;;;22.13;19.43;;;6.80;99.90;;;;;;5042110;28;20255;-63
2021/04/18 05:33:42;;;;;;;19.83;18.37;;;6.80;99.90;;;;;;5042059;28;20448;-63
2021/04/18 05:36:08;;;;;;;20.10;17.73;;;6.80;99.90;;;;;;5041668;28;20483;-64
2021/04/18 05:38:35;;;;;;;19.00;17.17;;;6.80;99.90;;;;;;5041750;28;21219;-63
2021/04/18 05:41:01;;;;;;;20.10;18.70;;;6.80;99.90;;;;;;5041890;28;20491;-64
2021/04/18 05:43:28;;;;;;;22.37;20.00;;;6.90;99.90;;;;;;5041673;28;20457;-64
2021/04/18 05:45:54;;;;;;;21.03;19.00;;;6.90;99.90;;;;;;5041966;28;20535;-64
2021/04/18 05:48:21;;;;;;;20.70;19.20;;;6.90;99.90;;;;;;5041684;28;20937;-64
2021/04/18 05:50:47;;;;;;;21.87;19.67;;;6.90;99.90;;;;;;5041788;28;20440;-66
2021/04/18 05:53:14;;;;;;;23.63;21.73;;;6.90;99.90;;;;;;5041607;28;20460;-65
2021/04/18 05:55:43;;;;;;;24.33;21.83;;;6.90;99.90;;;;;;5041534;28;20477;-65
2021/04/18 05:58:11;;;;;;;23.90;21.40;;;7.10;99.90;;;;;;5040418;28;20443;-65
2021/04/18 06:00:37;;;;;;;23.40;21.33;;;7.20;99.90;;;;;;5041262;28;20226;-66
2021/04/18 06:03:04;;;;;;;28.00;22.13;;;7.30;99.90;;;;;;5041479;28;20788;-65
2021/04/18 06:05:31;;;;;;;22.10;20.43;;;7.40;99.90;;;;;;5041133;28;20468;-65
2021/04/18 06:07:58;;;;;;;22.67;20.77;;;7.60;99.90;;;;;;5040987;28;20584;-65
2021/04/18 06:10:24;;;;;;;25.57;23.00;;;7.80;99.90;;;;;;5041086;28;21194;-63
2021/04/18 06:12:52;;;;;;;24.87;22.60;;;8.00;99.90;;;;;;5041204;28;20447;-64
2021/04/18 06:15:19;;;;;;;23.37;21.43;;;8.10;99.90;;;;;;5040803;28;20464;-63
2021/04/18 06:17:45;;;;;;;23.85;21.75;;;7.80;99.90;;;;;;5040204;28;21094;-64
2021/04/18 06:20:13;;;;;;;24.20;22.30;;;7.80;99.90;;;;;;5040773;28;20232;-64
2021/04/18 06:22:40;;;;;;;24.02;21.90;;;7.70;99.90;;;;;;5041582;28;20435;-65
2021/04/18 06:25:08;;;;;;;24.90;22.33;;;7.80;99.90;;;;;;5039622;28;20445;-64
2021/04/18 06:27:36;;;;;;;22.87;20.97;;;7.90;99.90;;;;;;5040677;28;20288;-64
2021/04/18 06:30:04;;;;;;;23.33;21.40;;;7.90;99.90;;;;;;5040681;28;20444;-63
2021/04/18 06:32:31;;;;;;;24.70;22.30;;;8.00;99.90;;;;;;5040708;28;20487;-64
2021/04/18 06:34:58;;;;;;;24.55;22.25;;;7.90;99.90;;;;;;5039496;28;20546;-64
2021/04/18 06:37:25;;;;;;;26.20;24.30;;;8.00;99.90;;;;;;5040129;28;20922;-63
2021/04/18 06:39:52;;;;;;;25.77;23.40;;;8.00;99.90;;;;;;5040336;28;20512;-64
2021/04/18 06:42:21;;;;;;;24.07;21.87;;;7.90;99.90;;;;;;5040590;28;20452;-64
2021/04/18 06:44:48;;;;;;;25.45;22.98;;;7.90;99.90;;;;;;5039376;28;20446;-63
2021/04/18 06:47:15;;;;;;;25.60;23.10;;;8.10;99.90;;;;;;5040440;28;21030;-65
2021/04/18 06:49:43;;;;;;;26.30;24.20;;;8.20;99.90;;;;;;5040120;28;20451;-63
2021/04/18 06:52:12;;;;;;;25.80;21.80;;;8.40;99.90;;;;;;5040371;28;20539;-65
2021/04/18 06:54:39;;;;;;;22.57;20.67;;;8.70;99.90;;;;;;5040160;28;20463;-66
2021/04/18 06:57:07;;;;;;;23.00;21.10;;;8.80;99.90;;;;;;5040279;28;20448;-65
2021/04/18 06:59:37;;;;;;;23.33;21.30;;;8.70;99.90;;;;;;5040085;28;20445;-62
2021/04/18 07:02:04;;;;;;;21.70;19.67;;;8.60;99.90;;;;;;5040181;28;20448;-63
2021/04/18 07:04:33;;;;;;;23.77;21.58;;;8.60;99.90;;;;;;5039615;28;20477;-63
2021/04/18 07:07:02;;;;;;;25.83;23.33;;;8.50;99.90;;;;;;5038560;28;20212;-61
2021/04/18 07:09:28;;;;;;;26.17;24.03;;;8.70;99.90;;;;;;5040107;28;20521;-63
2021/04/18 07:11:57;;;;;;;24.23;22.30;;;8.90;99.90;;;;;;5040149;28;21231;-63
2021/04/18 07:14:26;;;;;;;27.17;24.80;;;9.00;99.90;;;;;;5040343;28;21009;-63
2021/04/18 07:16:53;;;;;;;25.17;22.77;;;9.20;99.90;;;;;;5040369;28;20459;-63
2021/04/18 07:19:24;;;;;;;25.47;22.97;;;9.10;99.90;;;;;;5040083;28;20453;-63
2021/04/18 07:21:52;;;;;;;28.87;26.27;;;9.30;99.90;;;;;;5040145;28;20561;-63
2021/04/18 07:24:19;;;;;;;26.07;23.67;;;9.10;99.90;;;;;;5040172;28;20448;-63
2021/04/18 07:26:56;;;;;;;29.73;26.87;;;9.40;99.90;;;;;;5039974;28;21307;-64
2021/04/18 07:29:22;;;;;;;29.70;26.77;;;9.60;99.90;;;;;;5039964;28;20558;-63
2021/04/18 07:31:49;;;;;;;29.63;26.73;;;9.80;99.90;;;;;;5040200;28;20441;-64
2021/04/18 07:34:16;;;;;;;39.17;27.60;;;10.10;99.90;;;;;;5040029;28;20451;-64
2021/04/18 07:36:44;;;;;;;29.45;26.52;;;10.20;99.90;;;;;;5039399;28;20876;-63
2021/04/18 07:39:13;;;;;;;30.37;27.47;;;10.50;99.90;;;;;;5039624;28;20750;-63
2021/04/18 07:41:40;;;;;;;31.20;28.17;;;10.60;99.90;;;;;;5040344;28;20553;-63
2021/04/18 07:44:08;;;;;;;29.53;26.50;;;11.00;99.90;;;;;;5039886;28;20465;-64
2021/04/18 07:46:35;;;;;;;27.30;24.70;;;11.20;99.60;;;;;;5039555;28;20693;-63
2021/04/18 07:49:02;;;;;;;29.07;26.67;;;11.20;98.00;;;;;;5040039;28;20479;-64
2021/04/18 07:51:29;;;;;;;26.67;24.30;;;11.40;97.70;;;;;;5044168;28;20451;-64
2021/04/18 07:53:56;;;;;;;29.30;26.60;;;11.60;96.20;;;;;;5043780;28;20509;-62
2021/04/18 07:56:23;;;;;;;25.88;23.48;;;11.50;96.30;;;;;;5042489;28;20548;-63
2021/04/18 07:58:49;;;;;;;27.00;24.67;;;11.20;96.70;;;;;;5043414;28;20231;-69
2021/04/18 08:01:16;;;;;;;27.80;25.30;;;11.10;97.00;;;;;;5043492;28;20493;-64
2021/04/18 08:03:43;;;;;;;28.70;25.77;;;11.10;97.30;;;;;;5043481;28;20448;-63
2021/04/18 08:06:10;;;;;;;27.23;24.80;;;11.10;97.40;;;;;;5043485;28;20468;-63
2021/04/18 08:08:48;;;;;;;27.00;24.73;;;11.30;97.10;;;;;;5043318;28;20456;-63
2021/04/18 08:11:15;;;;;;;26.00;23.30;;;11.70;96.40;;;;;;5043265;28;20447;-65
2021/04/18 08:13:48;;;;;;;27.67;24.87;;;11.70;95.90;;;;;;5043372;28;20537;-64
2021/04/18 08:16:16;;;;;;;26.53;24.03;;;12.00;95.30;;;;;;5043129;28;20479;-63
2021/04/18 08:18:44;;;;;;;25.60;23.47;;;12.20;94.90;;;;;;5043040;28;20467;-63
2021/04/18 08:21:30;;;;;;;28.30;25.63;;;12.00;94.10;;;;;;5043154;28;20480;-63
2021/04/18 08:23:57;;;;;;;27.17;24.77;;;11.10;95.80;;;;;;5043135;28;20447;-64
2021/04/18 08:26:24;;;;;;;27.40;24.80;;;11.30;96.10;;;;;;5043298;28;20474;-63
2021/04/18 08:29:10;;;;;;;25.13;23.20;;;11.50;96.10;;;;;;5043091;28;20451;-63
2021/04/18 08:31:57;;;;;;;25.60;23.43;;;11.20;95.50;;;;;;5043113;28;20551;-64
2021/04/18 08:34:26;;;;;;;25.13;23.10;;;11.40;96.20;;;;;;5043041;28;20444;-63
2021/04/18 08:36:54;;;;;;;25.00;22.97;;;11.50;95.70;;;;;;5042923;28;21277;-64
2021/04/18 08:39:26;;;;;;;25.23;23.20;;;11.90;95.10;;;;;;5042810;28;20471;-65
2021/04/18 08:41:54;;;;;;;26.07;23.87;;;12.20;93.80;;;;;;5042958;28;20537;-65
2021/04/18 08:44:23;;;;;;;25.13;22.80;;;12.20;93.80;;;;;;5042914;28;20476;-64
2021/04/18 08:46:51;;;;;;;28.03;25.57;;;12.70;93.40;;;;;;5043011;28;20455;-65
2021/04/18 08:49:30;;;;;;;25.60;23.40;;;12.70;91.50;;;;;;5042600;28;20444;-64
2021/04/18 08:51:56;;;;;;;25.03;22.90;;;12.30;91.80;;;;;;5043454;28;20448;-63
2021/04/18 08:54:25;;;;;;;25.70;23.53;;;12.20;92.30;;;;;;5043349;28;20451;-63
2021/04/18 08:56:53;;;;;;;23.90;21.90;;;12.30;92.40;;;;;;5042905;28;20459;-65
2021/04/18 08:59:21;;;;;;;26.43;23.90;;;12.50;92.30;;;;;;5042289;28;20444;-64
2021/04/18 09:02:03;;;;;;;25.20;22.73;;;13.10;91.20;;;;;;5041839;28;20483;-65
2021/04/18 09:04:32;;;;;;;24.93;23.13;;;13.50;90.60;;;;;;5042288;28;20444;-66
2021/04/18 09:06:59;;;;;;;28.27;25.67;;;13.80;87.10;;;;;;5042269;28;21038;-64
2021/04/18 09:09:26;;;;;;;28.20;26.00;;;13.40;85.40;;;;;;5042029;28;20455;-65
2021/04/18 09:11:53;;;;;;;29.37;27.03;;;13.30;87.10;;;;;;5042537;28;21030;-62
2021/04/18 09:14:29;;;;;;;29.60;26.83;;;13.40;86.00;;;;;;5042168;28;20878;-64
2021/04/18 09:17:08;;;;;;;30.20;27.30;;;13.20;86.10;;;;;;5042308;28;20940;-63
2021/04/18 09:19:35;;;;;;;27.50;25.07;;;13.30;86.60;;;;;;5042352;28;20466;-64
2021/04/18 09:22:06;;;;;;;27.83;24.97;;;13.20;86.20;;;;;;5042446;28;20484;-63
2021/04/18 09:24:34;;;;;;;28.30;25.63;;;13.00;86.50;;;;;;5041861;28;21312;-65
2021/04/18 09:27:05;;;;;;;25.87;24.07;;;12.70;87.50;;;;;;5041926;28;20459;-64
2021/04/18 09:29:33;;;;;;;26.37;24.47;;;12.90;88.70;;;;;;5041832;28;20535;-65
2021/04/18 09:32:03;;;;;;;26.97;24.57;;;13.20;87.30;;;;;;5041844;28;20459;-63
2021/04/18 09:34:30;;;;;;;28.33;26.13;;;13.30;86.30;;;;;;5041592;28;20531;-63
2021/04/18 09:36:58;;;;;;;26.67;24.40;;;13.20;85.00;;;;;;5074633;22;20491;-64
2021/04/18 09:39:29;;;;;;;27.33;25.23;;;12.80;85.40;;;;;;5059736;28;20898;-67
2021/04/18 09:41:57;;;;;;;26.80;24.37;;;12.70;85.40;;;;;;5061357;28;20568;-65
2021/04/18 09:44:27;;;;;;;27.53;25.23;;;12.90;85.00;;;;;;5061672;28;20447;-67
2021/04/18 09:46:56;;;;;;;29.80;26.73;;;12.80;83.20;;;;;;5061560;28;20467;-65
2021/04/18 09:49:23;;;;;;;29.00;26.47;;;12.70;83.20;;;;;;5061511;28;20451;-66
2021/04/18 09:52:07;;;;;;;31.27;28.40;;;12.70;83.30;;;;;;5061543;28;20508;-67
2021/04/18 09:54:35;;;;;;;27.67;25.43;;;12.50;84.10;;;;;;5061438;28;20495;-66
2021/04/18 09:57:15;;;;;;;29.50;26.90;;;12.20;84.80;;;;;;5061491;28;20502;-67
2021/04/18 09:59:42;;;;;;;29.73;27.53;;;12.60;85.30;;;;;;5061433;28;21011;-66
2021/04/18 10:02:13;;;;;;;28.83;26.57;;;12.70;84.20;;;;;;5061114;28;20489;-66
2021/04/18 10:04:40;;;;;;;28.48;25.95;;;12.50;84.60;;;;;;5060521;28;20454;-65
2021/04/18 10:07:06;;;;;;;27.30;25.30;;;13.00;84.50;;;;;;5061197;28;20225;-67
2021/04/18 10:09:48;;;;;;;26.98;24.77;;;13.30;82.00;;;;;;5060340;28;20442;-66
2021/04/18 10:12:15;;;;;;;25.98;23.98;;;13.10;81.20;;;;;;5059240;28;20484;-65
2021/04/18 10:14:41;;;;;;;27.08;24.98;;;13.50;79.80;;;;;;5060373;28;20446;-67
2021/04/18 10:17:08;;;;;;;29.80;27.60;;;13.60;78.70;;;;;;5060882;28;20808;-64
2021/04/18 10:19:48;;;;;;;25.05;23.25;;;13.80;77.40;;;;;;5060227;28;20442;-66
2021/04/18 10:22:14;;;;;;;26.03;24.10;;;13.50;75.60;;;;;;5060959;28;20201;-67
2021/04/18 10:24:43;;;;;;;28.87;26.20;;;13.70;76.90;;;;;;5061218;28;20447;-66
2021/04/18 10:27:12;;;;;;;33.93;26.23;;;14.10;76.60;;;;;;5060881;28;20466;-66
2021/04/18 10:29:39;;;;;;;27.17;25.03;;;13.50;75.40;;;;;;5060596;28;20443;-65
2021/04/18 10:32:07;;;;;;;27.20;25.00;;;13.40;76.80;;;;;;5060815;28;20435;-66
2021/04/18 10:34:34;;;;;;;31.13;28.43;;;13.40;75.80;;;;;;5060727;28;20447;-66
2021/04/18 10:37:03;;;;;;;27.17;24.90;;;13.50;76.70;;;;;;5060411;28;20478;-65
2021/04/18 10:39:29;;;;;;;26.83;24.93;;;13.30;76.10;;;;;;5060414;28;20447;-65
2021/04/18 10:41:55;;;;;;;26.87;24.83;;;13.00;76.40;;;;;;5060419;28;21300;-65
2021/04/18 10:44:22;;;;;;;28.13;25.93;;;13.20;78.40;;;;;;5060486;28;20451;-65
2021/04/18 10:46:51;;;;;;;29.33;26.67;;;13.30;76.40;;;;;;5060255;28;20537;-65
2021/04/18 10:49:18;;;;;;;29.67;27.07;;;13.20;76.80;;;;;;5060128;28;20447;-65
2021/04/18 10:51:45;;;;;;;30.03;27.63;;;12.90;76.70;;;;;;5060697;28;20453;-65
2021/04/18 10:54:11;;;;;;;30.40;27.53;;;13.20;78.10;;;;;;5060105;28;20451;-66
2021/04/18 10:56:38;;;;;;;27.73;25.53;;;13.20;79.20;;;;;;5059267;28;20467;-66
2021/04/18 10:59:04;;;;;;;28.17;25.87;;;13.60;80.60;;;;;;5058249;28;20447;-66
2021/04/18 11:01:30;;;;;;;31.43;28.37;;;13.90;80.00;;;;;;5058548;28;20479;-65
2021/04/18 11:03:57;;;;;;;30.93;28.13;;;14.00;76.70;;;;;;5059034;28;20928;-65
2021/04/18 11:06:24;;;;;;;28.53;26.37;;;14.20;74.30;;;;;;5058723;28;20805;-65
2021/04/18 11:08:51;;;;;;;28.50;26.27;;;14.40;74.50;;;;;;5058756;28;20904;-65
2021/04/18 11:11:18;;;;;;;29.90;26.80;;;14.40;70.90;;;;;;5058798;28;21008;-66
2021/04/18 11:13:45;;;;;;;30.23;27.33;;;14.40;71.10;;;;;;5059043;28;20451;-65
2021/04/18 11:16:11;;;;;;;26.67;24.67;;;14.30;69.70;;;;;;5059751;28;20467;-65
2021/04/18 11:18:38;;;;;;;27.93;25.73;;;14.10;69.30;;;;;;5059461;28;20481;-64
2021/04/18 11:21:04;;;;;;;25.93;24.07;;;13.90;70.60;;;;;;5059246;28;21023;-65
2021/04/18 11:23:30;;;;;;;26.50;24.00;;;14.40;71.30;;;;;;5059173;28;20781;-66
2021/04/18 11:25:57;;;;;;;25.77;23.80;;;14.40;69.80;;;;;;5059523;28;20803;-65
2021/04/18 11:28:23;;;;;;;26.53;24.50;;;15.50;69.90;;;;;;5059258;28;20451;-66
2021/04/18 11:30:50;;;;;;;25.70;23.90;;;16.40;66.00;;;;;;5059125;28;20435;-66
2021/04/18 11:33:16;;;;;;;25.20;23.70;;;16.90;61.00;;;;;;5059226;28;20861;-65
2021/04/18 11:35:42;;;;;;;25.77;23.87;;;17.80;59.20;;;;;;5059004;28;20475;-66
2021/04/18 11:38:08;;;;;;;26.60;24.67;;;19.00;54.90;;;;;;5059157;28;20959;-65
2021/04/18 11:40:35;;;;;;;26.43;24.40;;;20.50;52.40;;;;;;5059609;28;20494;-66
2021/04/18 11:43:03;;;;;;;27.83;25.63;;;21.40;47.00;;;;;;5059273;28;20976;-66
2021/04/18 11:45:29;;;;;;;26.77;25.07;;;21.00;45.10;;;;;;5059129;28;20466;-66
2021/04/18 11:47:57;;;;;;;27.20;25.50;;;20.00;46.20;;;;;;5059498;28;20447;-64
2021/04/18 11:50:24;;;;;;;28.00;26.13;;;20.10;45.10;;;;;;5059322;28;20961;-64
2021/04/18 11:52:50;;;;;;;29.30;27.27;;;19.70;45.10;;;;;;5059359;28;20454;-64
2021/04/18 11:55:16;;;;;;;27.73;25.93;;;20.70;45.40;;;;;;5059309;28;20471;-67
2021/04/18 11:57:43;;;;;;;28.03;26.03;;;20.00;44.50;;;;;;5059111;28;20954;-66
2021/04/18 12:00:12;;;;;;;29.00;26.63;;;19.60;44.70;;;;;;5059131;28;20448;-65
2021/04/18 12:02:39;;;;;;;26.90;25.07;;;19.30;45.70;;;;;;5059097;28;20455;-64
2021/04/18 12:05:06;;;;;;;27.90;25.83;;;19.30;45.60;;;;;;5059209;28;20839;-65
2021/04/18 12:07:32;;;;;;;26.40;24.43;;;19.40;45.10;;;;;;5059152;28;20470;-65
2021/04/18 12:09:59;;;;;;;27.43;25.63;;;19.00;44.90;;;;;;5059202;28;20443;-64
2021/04/18 12:12:25;;;;;;;26.47;24.80;;;18.80;46.10;;;;;;5059234;28;20817;-66
2021/04/18 12:14:51;;;;;;;28.73;26.30;;;19.90;45.30;;;;;;5059079;28;20442;-65
2021/04/18 12:17:18;;;;;;;27.97;25.97;;;20.10;44.00;;;;;;5059198;28;20509;-64
2021/04/18 12:19:45;;;;;;;26.70;24.90;;;19.60;44.50;;;;;;5058812;28;20855;-64
2021/04/18 12:22:11;;;;;;;26.90;25.07;;;20.30;43.60;;;;;;5058859;28;21009;-64
2021/04/18 12:24:37;;;;;;;27.10;25.37;;;21.60;41.40;;;;;;5058747;28;20534;-64
2021/04/18 12:27:04;;;;;;;28.13;26.10;;;20.30;41.20;;;;;;5058650;28;20470;-66
2021/04/18 12:29:31;;;;;;;26.20;24.50;;;19.00;42.70;;;;;;5058623;28;20887;-65
2021/04/18 12:31:57;;;;;;;26.00;24.33;;;18.20;44.10;;;;;;5058934;28;20566;-65
2021/04/18 12:34:24;;;;;;;28.10;26.20;;;17.50;45.80;;;;;;5059034;28;20480;-65